Benwood, West Virginia
Current Conditions -  °F | °C
As of 7:15 AM on Sunday 25 Jan 2015 (Local Time) from KHLG Reporting Station
Haze Haze  
Wind Chill: 27°   Ceiling: 1000
Heat Index: 32°   Visibility: 5mi
Dew Point: 30°   Wind: 5mph
Humidity: 92%   Direction: 230°SW
Pressure: 29.76"   Gusts: NA
Location:  40.02°N, 80.73°W
Report Text: KHLG 251215Z 23004KT 5SM BR BKN010 OVC034 00/M01 A2976 RMK AO2 T00001011
Loading
Personal Weather Stations






























Interactive Weather Map New forecast layout! Learn more

10-Day Weather Forecast

Advertisements
Track Severe Weather on mobile